createdAt,value
2018-07-27T00:00:32.395Z,0.00
2018-07-27T00:01:32.550Z,0.00
2018-07-27T00:02:32.708Z,0.00
2018-07-27T00:03:32.867Z,0.00
2018-07-27T00:04:33.025Z,0.00
2018-07-27T00:05:33.182Z,0.00
2018-07-27T00:06:33.340Z,0.00
2018-07-27T00:07:33.500Z,0.00
2018-07-27T00:08:33.656Z,0.00
2018-07-27T00:09:33.816Z,0.00
2018-07-27T00:10:33.969Z,0.00
2018-07-27T00:11:34.127Z,0.00
2018-07-27T00:12:34.286Z,0.00
2018-07-27T00:13:34.439Z,0.00
2018-07-27T00:14:34.595Z,0.00
2018-07-27T00:15:34.751Z,0.00
2018-07-27T00:16:34.908Z,0.00
2018-07-27T00:17:35.065Z,0.00
2018-07-27T00:18:35.221Z,0.00
2018-07-27T00:19:35.381Z,0.00
2018-07-27T00:20:35.535Z,0.00
2018-07-27T00:21:35.694Z,0.00
2018-07-27T00:22:35.857Z,0.00
2018-07-27T00:23:36.008Z,0.00
2018-07-27T00:24:36.165Z,0.00
2018-07-27T00:25:36.320Z,0.00
2018-07-27T00:26:36.476Z,0.00
2018-07-27T00:27:36.633Z,0.00
2018-07-27T00:28:36.789Z,0.00
2018-07-27T00:29:36.946Z,0.00
2018-07-27T00:30:37.102Z,0.00
2018-07-27T00:31:37.257Z,0.00
2018-07-27T00:32:37.417Z,0.00
2018-07-27T00:33:37.574Z,0.00
2018-07-27T00:34:37.729Z,0.00
2018-07-27T00:35:37.885Z,0.00
2018-07-27T00:36:38.042Z,0.00
2018-07-27T00:37:38.198Z,0.00
2018-07-27T00:38:38.355Z,0.00
2018-07-27T00:39:38.513Z,0.00
2018-07-27T00:40:38.669Z,0.00
2018-07-27T00:41:38.827Z,0.00
2018-07-27T00:42:38.984Z,0.00
2018-07-27T00:43:39.137Z,0.00
2018-07-27T00:44:39.297Z,0.00
2018-07-27T00:45:39.453Z,0.00
2018-07-27T00:46:39.617Z,0.00
2018-07-27T00:47:39.767Z,0.00
2018-07-27T00:48:39.922Z,0.00
2018-07-27T00:49:40.079Z,0.00
2018-07-27T00:50:40.239Z,0.00
2018-07-27T00:51:40.395Z,0.00
2018-07-27T00:52:40.552Z,0.00
2018-07-27T00:53:40.708Z,0.00
2018-07-27T00:54:40.864Z,0.00
2018-07-27T00:55:41.020Z,0.00
2018-07-27T00:56:41.178Z,0.00
2018-07-27T00:57:41.335Z,0.00
2018-07-27T00:58:41.488Z,0.00
2018-07-27T00:59:41.644Z,0.00
2018-07-27T01:00:41.799Z,0.00
2018-07-27T01:01:41.955Z,0.00
2018-07-27T01:02:42.113Z,0.00
2018-07-27T01:03:42.269Z,0.00
2018-07-27T01:04:42.426Z,0.00
2018-07-27T01:05:42.579Z,0.00
2018-07-27T01:06:42.739Z,0.00
2018-07-27T01:07:42.892Z,0.00
2018-07-27T01:08:43.052Z,0.00
2018-07-27T01:09:43.206Z,0.00
2018-07-27T01:10:43.362Z,0.00
2018-07-27T01:11:43.523Z,0.00
2018-07-27T01:12:43.677Z,0.00
2018-07-27T01:13:43.835Z,0.00
2018-07-27T01:14:43.989Z,0.00
2018-07-27T01:15:44.145Z,0.00
2018-07-27T01:16:44.303Z,0.00
2018-07-27T01:17:44.458Z,0.00
2018-07-27T01:18:44.616Z,0.00
2018-07-27T01:19:44.772Z,0.00
2018-07-27T01:20:44.929Z,0.00
2018-07-27T01:21:45.083Z,0.00
2018-07-27T01:22:45.240Z,0.00
2018-07-27T01:23:45.395Z,0.00
2018-07-27T01:24:45.553Z,0.00
2018-07-27T01:25:45.710Z,0.00
2018-07-27T01:26:45.863Z,0.00
2018-07-27T01:27:46.020Z,0.00
2018-07-27T01:28:46.186Z,0.00
2018-07-27T01:29:46.341Z,0.00
2018-07-27T01:30:46.496Z,0.00
2018-07-27T01:31:46.655Z,0.00
2018-07-27T01:32:46.808Z,0.00
2018-07-27T01:33:46.962Z,0.00
2018-07-27T01:34:47.121Z,0.00
2018-07-27T01:35:47.279Z,0.00
2018-07-27T01:36:47.437Z,0.00
2018-07-27T01:37:47.598Z,0.00
2018-07-27T01:38:47.756Z,0.00
2018-07-27T01:39:47.905Z,0.00
2018-07-27T01:40:48.065Z,0.00
2018-07-27T01:41:48.222Z,0.00
2018-07-27T01:42:48.381Z,0.00
2018-07-27T01:43:48.533Z,0.00
2018-07-27T01:44:48.690Z,0.00
2018-07-27T01:45:48.845Z,0.00
2018-07-27T01:46:49.005Z,0.00
2018-07-27T01:47:49.159Z,0.00
2018-07-27T01:48:49.317Z,0.00
2018-07-27T01:49:49.504Z,0.00
2018-07-27T01:50:49.629Z,0.00
2018-07-27T01:51:49.784Z,0.00
2018-07-27T01:52:49.943Z,0.00
2018-07-27T01:53:50.097Z,0.00
2018-07-27T01:54:50.250Z,0.00
2018-07-27T01:55:50.406Z,0.00
2018-07-27T01:56:50.562Z,0.00
2018-07-27T01:57:50.719Z,0.00
2018-07-27T01:58:50.875Z,0.00
2018-07-27T01:59:51.033Z,0.00
2018-07-27T02:00:51.188Z,0.00
2018-07-27T02:01:51.345Z,0.00
2018-07-27T02:02:51.508Z,0.00
2018-07-27T02:03:51.662Z,0.00
2018-07-27T02:04:51.818Z,0.00
2018-07-27T02:05:52.003Z,0.00
2018-07-27T02:06:52.127Z,0.00
2018-07-27T02:07:52.283Z,0.00
2018-07-27T02:08:52.441Z,0.00
2018-07-27T02:09:52.596Z,0.00
2018-07-27T02:10:52.752Z,0.00
2018-07-27T02:11:52.907Z,0.00
2018-07-27T02:12:53.099Z,0.00
2018-07-27T02:13:53.223Z,0.00
2018-07-27T02:14:53.378Z,0.00
2018-07-27T02:15:53.534Z,0.00
2018-07-27T02:16:53.690Z,0.00
2018-07-27T02:17:53.845Z,0.00
2018-07-27T02:18:54.005Z,0.00
2018-07-27T02:19:54.160Z,0.00
2018-07-27T02:20:54.315Z,0.00
2018-07-27T02:21:54.473Z,0.00
2018-07-27T02:22:54.631Z,0.00
2018-07-27T02:23:54.786Z,0.00
2018-07-27T02:24:54.942Z,0.00
2018-07-27T02:25:55.098Z,0.00
2018-07-27T02:26:55.255Z,0.00
2018-07-27T02:27:55.412Z,0.00
2018-07-27T02:28:55.568Z,0.00
2018-07-27T02:29:55.720Z,0.00
2018-07-27T02:30:55.880Z,0.00
2018-07-27T02:31:56.037Z,0.00
2018-07-27T02:32:56.192Z,0.00
2018-07-27T02:33:56.473Z,0.00
2018-07-27T02:34:56.505Z,0.00
2018-07-27T02:35:56.661Z,0.00
2018-07-27T02:36:56.815Z,0.00
2018-07-27T02:37:56.975Z,0.00
2018-07-27T02:38:57.130Z,0.00
2018-07-27T02:39:57.304Z,0.00
2018-07-27T02:40:57.445Z,0.00
2018-07-27T02:41:57.597Z,0.00
2018-07-27T02:42:57.751Z,0.00
2018-07-27T02:43:57.909Z,0.00
2018-07-27T02:44:58.066Z,0.00
2018-07-27T02:45:58.221Z,0.00
2018-07-27T02:46:58.378Z,0.00
2018-07-27T02:47:58.535Z,0.00
2018-07-27T02:48:58.687Z,0.00
2018-07-27T02:49:58.841Z,0.00
2018-07-27T02:50:58.998Z,0.00
2018-07-27T02:51:59.154Z,0.00
2018-07-27T02:52:59.330Z,4.00
2018-07-27T02:53:59.466Z,4.00
2018-07-27T02:54:59.622Z,0.00
2018-07-27T02:55:59.778Z,0.00
2018-07-27T02:56:59.937Z,4.00
2018-07-27T02:58:00.085Z,4.00
2018-07-27T02:59:00.243Z,0.00
2018-07-27T03:00:00.400Z,4.00
2018-07-27T03:01:00.556Z,4.00
2018-07-27T03:02:00.710Z,4.00
2018-07-27T03:03:00.866Z,4.00
2018-07-27T03:04:01.022Z,8.00
2018-07-27T03:05:01.177Z,8.00
2018-07-27T03:06:01.333Z,8.00
2018-07-27T03:07:01.490Z,8.00
2018-07-27T03:08:01.645Z,8.00
2018-07-27T03:09:01.797Z,12.00
2018-07-27T03:10:01.958Z,12.00
2018-07-27T03:11:02.110Z,16.00
2018-07-27T03:12:02.268Z,16.00
2018-07-27T03:13:02.437Z,20.00
2018-07-27T03:14:02.579Z,20.00
2018-07-27T03:15:02.734Z,24.00
2018-07-27T03:16:02.889Z,28.00
2018-07-27T03:17:03.045Z,32.00
2018-07-27T03:18:03.201Z,36.00
2018-07-27T03:19:03.364Z,40.00
2018-07-27T03:20:03.511Z,44.00
2018-07-27T03:21:03.663Z,52.00
2018-07-27T03:22:03.819Z,56.00
2018-07-27T03:23:03.973Z,64.00
2018-07-27T03:24:04.128Z,72.00
2018-07-27T03:25:04.285Z,80.00
2018-07-27T03:26:04.443Z,92.00
2018-07-27T03:27:04.597Z,96.00
2018-07-27T03:28:04.747Z,112.00
2018-07-27T03:29:04.905Z,120.00
2018-07-27T03:30:05.060Z,132.00
2018-07-27T03:31:05.215Z,148.00
2018-07-27T03:32:05.380Z,160.00
2018-07-27T03:33:05.534Z,176.00
2018-07-27T03:34:05.690Z,192.00
2018-07-27T03:35:05.841Z,208.00
2018-07-27T03:36:05.999Z,228.00
2018-07-27T03:37:06.154Z,244.00
2018-07-27T03:38:06.363Z,268.00
2018-07-27T03:39:06.467Z,288.00
2018-07-27T03:40:06.620Z,312.00
2018-07-27T03:41:06.775Z,336.00
2018-07-27T03:42:06.936Z,360.00
2018-07-27T03:43:07.087Z,384.00
2018-07-27T03:44:07.248Z,412.00
2018-07-27T03:45:07.399Z,444.00
2018-07-27T03:46:07.551Z,468.00
2018-07-27T03:47:07.708Z,500.00
2018-07-27T03:48:07.864Z,532.00
2018-07-27T03:49:08.019Z,568.00
2018-07-27T03:50:08.176Z,600.00
2018-07-27T03:51:08.333Z,640.00
2018-07-27T03:52:08.491Z,672.00
2018-07-27T03:53:08.644Z,712.00
2018-07-27T03:54:08.800Z,756.00
2018-07-27T03:55:08.954Z,792.00
2018-07-27T03:56:09.109Z,832.00
2018-07-27T03:57:09.263Z,880.00
2018-07-27T03:58:09.420Z,924.00
2018-07-27T03:59:09.576Z,968.00
2018-07-27T04:00:09.734Z,1016.00
2018-07-27T04:01:09.892Z,1060.00
2018-07-27T04:02:10.052Z,1104.00
2018-07-27T04:03:10.202Z,1152.00
2018-07-27T04:04:10.357Z,1200.00
2018-07-27T04:05:10.512Z,1248.00
2018-07-27T04:06:10.717Z,1296.00
2018-07-27T04:07:10.826Z,1344.00
2018-07-27T04:08:10.977Z,1392.00
2018-07-27T04:09:11.134Z,1440.00
2018-07-27T04:10:11.292Z,1492.00
2018-07-27T04:11:11.446Z,1540.00
2018-07-27T04:12:11.607Z,1588.00
2018-07-27T04:13:11.773Z,1640.00
2018-07-27T04:14:11.916Z,1688.00
2018-07-27T04:15:12.072Z,1736.00
2018-07-27T04:16:12.227Z,1784.00
2018-07-27T04:17:12.384Z,1828.00
2018-07-27T04:18:12.544Z,1880.00
2018-07-27T04:19:12.696Z,1920.00
2018-07-27T04:20:12.852Z,1968.00
2018-07-27T04:21:13.009Z,2012.00
2018-07-27T04:22:13.165Z,2056.00
2018-07-27T04:23:13.319Z,2100.00
2018-07-27T04:24:13.475Z,2140.00
2018-07-27T04:25:13.633Z,2188.00
2018-07-27T04:26:13.810Z,2228.00
2018-07-27T04:27:13.943Z,2268.00
2018-07-27T04:28:14.104Z,2312.00
2018-07-27T04:29:14.259Z,2352.00
2018-07-27T04:30:14.414Z,2396.00
2018-07-27T04:31:14.573Z,2440.00
2018-07-27T04:32:14.730Z,2480.00
2018-07-27T04:33:14.886Z,2524.00
2018-07-27T04:34:15.046Z,2564.00
2018-07-27T04:35:15.204Z,2604.00
2018-07-27T04:36:15.361Z,2644.00
2018-07-27T04:37:15.512Z,2680.00
2018-07-27T04:38:15.670Z,2716.00
2018-07-27T04:39:15.825Z,2756.00
2018-07-27T04:40:15.980Z,2800.00
2018-07-27T04:41:16.135Z,2836.00
2018-07-27T04:42:16.290Z,2876.00
2018-07-27T04:43:16.454Z,2912.00
2018-07-27T04:44:16.606Z,2952.00
2018-07-27T04:45:16.764Z,2988.00
2018-07-27T04:46:16.920Z,3020.00
2018-07-27T04:47:17.074Z,3048.00
2018-07-27T04:48:17.228Z,3080.00
2018-07-27T04:49:17.410Z,3108.00
2018-07-27T04:50:17.540Z,3136.00
2018-07-27T04:51:17.701Z,3168.00
2018-07-27T04:52:17.855Z,3200.00
2018-07-27T04:53:18.010Z,3240.00
2018-07-27T04:54:18.165Z,3268.00
2018-07-27T04:55:18.320Z,3300.00
2018-07-27T04:56:18.551Z,3328.00
2018-07-27T04:57:18.631Z,3360.00
2018-07-27T04:58:18.787Z,3388.00
2018-07-27T04:59:18.943Z,3408.00
2018-07-27T05:00:19.099Z,3436.00
2018-07-27T05:01:19.258Z,3464.00
2018-07-27T05:02:19.410Z,3488.00
2018-07-27T05:03:19.567Z,3520.00
2018-07-27T05:04:19.723Z,3540.00
2018-07-27T05:05:19.878Z,3568.00
2018-07-27T05:06:20.036Z,3596.00
2018-07-27T05:07:20.191Z,3616.00
2018-07-27T05:08:20.349Z,3636.00
2018-07-27T05:09:20.506Z,3660.00
2018-07-27T05:10:20.662Z,3688.00
2018-07-27T05:11:20.819Z,3712.00
2018-07-27T05:12:20.974Z,3728.00
2018-07-27T05:13:21.129Z,3756.00
2018-07-27T05:14:21.287Z,3788.00
2018-07-27T05:15:21.443Z,3812.00
2018-07-27T05:16:21.601Z,3840.00
2018-07-27T05:17:21.755Z,3860.00
2018-07-27T05:18:21.982Z,3888.00
2018-07-27T05:19:22.063Z,3900.00
2018-07-27T05:20:22.221Z,3920.00
2018-07-27T05:21:22.379Z,3940.00
2018-07-27T05:22:22.540Z,3956.00
2018-07-27T05:23:22.691Z,3972.00
2018-07-27T05:24:22.844Z,3996.00
2018-07-27T05:25:23.000Z,4012.00
2018-07-27T05:26:23.156Z,4032.00
2018-07-27T05:27:23.316Z,4052.00
2018-07-27T05:28:23.471Z,4068.00
2018-07-27T05:29:23.626Z,4088.00
2018-07-27T05:30:23.782Z,4108.00
2018-07-27T05:31:23.939Z,4128.00
2018-07-27T05:32:24.099Z,4152.00
2018-07-27T05:33:24.254Z,4176.00
2018-07-27T05:34:24.429Z,4200.00
2018-07-27T05:35:24.566Z,4216.00
2018-07-27T05:36:24.724Z,4232.00
2018-07-27T05:37:24.890Z,4256.00
2018-07-27T05:38:25.038Z,4268.00
2018-07-27T05:39:25.197Z,4280.00
2018-07-27T05:40:25.354Z,4300.00
2018-07-27T05:41:25.509Z,4316.00
2018-07-27T05:42:25.667Z,4336.00
2018-07-27T05:43:25.824Z,4348.00
2018-07-27T05:44:25.980Z,4368.00
2018-07-27T05:45:26.138Z,4380.00
2018-07-27T05:46:26.295Z,4388.00
2018-07-27T05:47:26.451Z,4400.00
2018-07-27T05:48:26.611Z,4408.00
2018-07-27T05:49:26.768Z,4416.00
2018-07-27T05:50:26.926Z,4428.00
2018-07-27T05:51:27.082Z,4440.00
2018-07-27T05:52:27.239Z,4452.00
2018-07-27T05:53:27.399Z,4464.00
2018-07-27T05:54:27.552Z,4472.00
2018-07-27T05:55:27.707Z,4476.00
2018-07-27T05:56:27.866Z,4484.00
2018-07-27T05:57:28.028Z,4488.00
2018-07-27T05:58:28.180Z,4500.00
2018-07-27T05:59:28.389Z,4516.00
2018-07-27T06:00:28.495Z,4528.00
2018-07-27T06:01:28.653Z,4540.00
2018-07-27T06:02:28.808Z,4548.00
2018-07-27T06:03:28.968Z,4552.00
2018-07-27T06:04:29.126Z,4560.00
2018-07-27T06:05:29.284Z,4568.00
2018-07-27T06:06:29.440Z,4572.00
2018-07-27T06:07:29.598Z,4572.00
2018-07-27T06:08:29.757Z,4576.00
2018-07-27T06:09:29.915Z,4584.00
2018-07-27T06:10:30.072Z,4588.00
2018-07-27T06:11:30.230Z,4592.00
2018-07-27T06:12:30.385Z,4600.00
2018-07-27T06:13:30.544Z,4600.00
2018-07-27T06:14:30.711Z,4608.00
2018-07-27T06:15:30.860Z,4608.00
2018-07-27T06:16:31.018Z,4620.00
2018-07-27T06:17:31.179Z,4620.00
2018-07-27T06:18:31.334Z,4628.00
2018-07-27T06:19:31.494Z,4636.00
2018-07-27T06:20:31.653Z,4640.00
2018-07-27T06:21:31.812Z,4644.00
2018-07-27T06:22:31.969Z,4640.00
2018-07-27T06:23:32.127Z,4644.00
2018-07-27T06:24:32.360Z,4644.00
2018-07-27T06:25:32.491Z,4652.00
2018-07-27T06:26:32.602Z,4656.00
2018-07-27T06:27:32.759Z,4672.00
2018-07-27T06:28:32.916Z,4676.00
2018-07-27T06:29:33.075Z,4684.00
2018-07-27T06:30:33.232Z,4688.00
2018-07-27T06:31:33.392Z,4696.00
2018-07-27T06:32:33.555Z,4700.00
2018-07-27T06:33:33.707Z,4700.00
2018-07-27T06:34:33.865Z,4708.00
2018-07-27T06:35:34.026Z,4712.00
2018-07-27T06:36:34.183Z,4720.00
2018-07-27T06:37:34.339Z,4724.00
2018-07-27T06:38:34.500Z,4724.00
2018-07-27T06:39:34.658Z,4732.00
2018-07-27T06:40:34.818Z,4740.00
2018-07-27T06:41:34.977Z,4740.00
2018-07-27T06:42:35.134Z,4744.00
2018-07-27T06:43:35.295Z,4748.00
2018-07-27T06:44:35.453Z,4756.00
2018-07-27T06:45:35.608Z,4756.00
2018-07-27T06:46:35.773Z,4756.00
2018-07-27T06:47:35.929Z,4760.00
2018-07-27T06:48:36.089Z,4768.00
2018-07-27T06:49:36.245Z,4764.00
2018-07-27T06:50:36.408Z,4768.00
2018-07-27T06:51:36.566Z,4768.00
2018-07-27T06:52:36.722Z,4768.00
2018-07-27T06:53:36.879Z,4776.00
2018-07-27T06:54:37.040Z,4780.00
2018-07-27T06:55:37.198Z,4784.00
2018-07-27T06:56:37.356Z,4784.00
2018-07-27T06:57:37.517Z,4788.00
2018-07-27T06:58:37.675Z,4792.00
2018-07-27T06:59:37.835Z,4796.00
2018-07-27T07:00:37.994Z,4796.00
2018-07-27T07:01:38.155Z,4796.00
2018-07-27T07:02:38.318Z,4812.00
2018-07-27T07:03:38.481Z,4816.00
2018-07-27T07:04:38.635Z,4824.00
2018-07-27T07:05:38.794Z,4820.00
2018-07-27T07:06:38.952Z,4828.00
2018-07-27T07:07:39.111Z,4828.00
2018-07-27T07:08:39.272Z,4836.00
2018-07-27T07:09:39.430Z,4832.00
2018-07-27T07:10:39.587Z,4836.00
2018-07-27T07:11:39.748Z,4832.00
2018-07-27T07:12:39.908Z,4840.00
2018-07-27T07:13:40.065Z,4836.00
2018-07-27T07:14:40.226Z,4840.00
2018-07-27T07:15:40.386Z,4848.00
2018-07-27T07:16:40.547Z,4856.00
2018-07-27T07:17:40.706Z,4860.00
2018-07-27T07:18:40.864Z,4868.00
2018-07-27T07:19:41.024Z,4872.00
2018-07-27T07:20:41.184Z,4872.00
2018-07-27T07:21:41.345Z,4872.00
2018-07-27T07:22:41.510Z,4868.00
2018-07-27T07:23:41.667Z,4860.00
2018-07-27T07:24:41.827Z,4864.00
2018-07-27T07:25:42.113Z,4860.00
2018-07-27T07:26:42.147Z,4864.00
2018-07-27T07:27:42.315Z,4860.00
2018-07-27T07:28:42.469Z,4864.00
2018-07-27T07:29:42.631Z,4864.00
2018-07-27T07:30:42.788Z,4860.00
2018-07-27T07:31:42.950Z,4860.00
2018-07-27T07:32:43.111Z,4860.00
2018-07-27T07:33:43.274Z,4868.00
2018-07-27T07:34:43.433Z,4860.00
2018-07-27T07:35:43.593Z,4872.00
2018-07-27T07:36:43.752Z,4872.00
2018-07-27T07:37:43.911Z,4876.00
2018-07-27T07:38:44.072Z,4884.00
2018-07-27T07:39:44.233Z,4888.00
2018-07-27T07:40:44.392Z,4892.00
2018-07-27T07:41:44.555Z,4892.00
2018-07-27T07:42:44.716Z,4892.00
2018-07-27T07:43:44.910Z,4900.00
2018-07-27T07:44:45.038Z,4900.00
2018-07-27T07:45:45.200Z,4900.00
2018-07-27T07:46:45.360Z,4896.00
2018-07-27T07:47:45.521Z,4892.00
2018-07-27T07:48:45.683Z,4908.00
2018-07-27T07:49:45.840Z,4908.00
2018-07-27T07:50:46.001Z,4912.00
2018-07-27T07:51:46.164Z,4912.00
2018-07-27T07:52:46.328Z,4916.00
2018-07-27T07:53:46.486Z,4920.00
2018-07-27T07:54:46.649Z,4916.00
2018-07-27T07:55:46.807Z,4928.00
2018-07-27T07:56:46.971Z,4924.00
2018-07-27T07:57:47.132Z,4924.00
2018-07-27T07:58:47.300Z,4936.00
2018-07-27T07:59:47.455Z,4936.00
2018-07-27T08:00:47.616Z,4944.00
2018-07-27T08:01:47.778Z,4948.00
2018-07-27T08:02:47.940Z,4948.00
2018-07-27T08:03:48.100Z,4952.00
2018-07-27T08:04:48.265Z,4960.00
2018-07-27T08:05:48.425Z,4968.00
2018-07-27T08:06:48.602Z,4976.00
2018-07-27T08:07:48.750Z,4980.00
2018-07-27T08:08:48.912Z,4980.00
2018-07-27T08:09:49.074Z,4988.00
2018-07-27T08:10:49.235Z,4992.00
2018-07-27T08:11:49.400Z,5004.00
2018-07-27T08:12:49.558Z,5004.00
2018-07-27T08:13:49.721Z,5012.00
2018-07-27T08:14:49.881Z,5004.00
2018-07-27T08:15:50.045Z,5012.00
2018-07-27T08:16:50.204Z,5024.00
2018-07-27T08:17:50.366Z,5036.00
2018-07-27T08:18:50.529Z,5032.00
2018-07-27T08:19:50.701Z,5040.00
2018-07-27T08:20:50.858Z,5044.00
2018-07-27T08:21:51.019Z,5040.00
2018-07-27T08:22:51.180Z,5040.00
2018-07-27T08:23:51.342Z,5048.00
2018-07-27T08:24:51.504Z,5056.00
2018-07-27T08:25:51.721Z,5052.00
2018-07-27T08:26:51.831Z,5056.00
2018-07-27T08:27:52.970Z,5064.00
2018-07-27T08:28:52.151Z,5060.00
2018-07-27T08:29:52.314Z,5064.00
2018-07-27T08:30:52.479Z,5068.00
2018-07-27T08:31:52.639Z,5072.00
2018-07-27T08:32:52.800Z,5068.00
2018-07-27T08:33:52.963Z,5072.00
2018-07-27T08:34:53.125Z,5064.00
2018-07-27T08:35:53.288Z,5076.00
2018-07-27T08:36:53.450Z,5104.00
2018-07-27T08:37:53.616Z,5108.00
2018-07-27T08:38:53.835Z,5084.00
2018-07-27T08:39:53.942Z,5096.00
2018-07-27T08:40:54.103Z,5108.00
2018-07-27T08:41:54.268Z,5092.00
2018-07-27T08:42:54.431Z,5088.00
2018-07-27T08:43:54.593Z,5096.00
2018-07-27T08:44:54.756Z,5092.00
2018-07-27T08:45:54.919Z,5120.00
2018-07-27T08:46:55.082Z,5112.00
2018-07-27T08:47:55.244Z,5108.00
2018-07-27T08:48:55.408Z,5108.00
2018-07-27T08:49:55.572Z,5108.00
2018-07-27T08:50:55.734Z,5104.00
2018-07-27T08:51:55.899Z,5108.00
2018-07-27T08:52:56.064Z,5116.00
2018-07-27T08:53:56.226Z,5108.00
2018-07-27T08:54:56.388Z,5136.00
2018-07-27T08:55:56.553Z,5144.00
2018-07-27T08:56:56.715Z,5168.00
2018-07-27T08:57:56.876Z,5176.00
2018-07-27T08:58:57.043Z,5188.00
2018-07-27T08:59:57.199Z,5188.00
2018-07-27T09:00:57.364Z,5188.00
2018-07-27T09:01:57.528Z,5192.00
2018-07-27T09:02:57.692Z,5212.00
2018-07-27T09:03:57.861Z,5204.00
2018-07-27T09:04:58.022Z,5216.00
2018-07-27T09:05:58.181Z,5196.00
2018-07-27T09:06:58.345Z,5220.00
2018-07-27T09:07:58.509Z,5204.00
2018-07-27T09:08:58.670Z,5224.00
2018-07-27T09:09:58.832Z,5220.00
2018-07-27T09:10:58.993Z,5240.00
2018-07-27T09:11:59.160Z,5224.00
2018-07-27T09:12:59.325Z,5224.00
2018-07-27T09:13:59.487Z,5248.00
2018-07-27T09:14:59.678Z,5220.00
2018-07-27T09:15:59.811Z,5224.00
2018-07-27T09:16:59.976Z,5248.00
2018-07-27T09:18:00.138Z,5240.00
2018-07-27T09:19:00.300Z,5240.00
2018-07-27T09:20:00.463Z,5312.00
2018-07-27T09:21:00.632Z,5280.00
2018-07-27T09:22:00.788Z,5320.00
2018-07-27T09:23:00.953Z,5324.00
2018-07-27T09:24:01.115Z,5344.00
2018-07-27T09:25:01.460Z,5356.00
2018-07-27T09:26:01.444Z,5340.00
2018-07-27T09:27:01.612Z,5360.00
2018-07-27T09:28:01.773Z,5352.00
2018-07-27T09:29:01.936Z,5400.00
2018-07-27T09:30:02.102Z,5416.00
2018-07-27T09:31:02.266Z,5412.00
2018-07-27T09:32:02.432Z,5460.00
2018-07-27T09:33:02.592Z,5528.00
2018-07-27T09:34:02.808Z,5568.00
2018-07-27T09:35:02.932Z,5528.00
2018-07-27T09:36:03.086Z,5536.00
2018-07-27T09:37:03.253Z,5552.00
2018-07-27T09:38:03.412Z,5652.00
2018-07-27T09:39:03.579Z,5768.00
2018-07-27T09:40:03.739Z,5796.00
2018-07-27T09:41:03.900Z,5704.00
2018-07-27T09:42:04.066Z,5748.00
2018-07-27T09:43:04.226Z,5704.00
2018-07-27T09:44:04.391Z,5712.00
2018-07-27T09:45:04.558Z,5748.00
2018-07-27T09:46:04.718Z,5808.00
2018-07-27T09:47:04.890Z,5812.00
2018-07-27T09:48:05.047Z,5856.00
2018-07-27T09:49:05.210Z,5900.00
2018-07-27T09:50:05.371Z,5892.00
2018-07-27T09:51:05.534Z,5824.00
2018-07-27T09:52:05.701Z,5732.00
2018-07-27T09:53:05.864Z,5696.00
2018-07-27T09:54:06.027Z,5680.00
2018-07-27T09:55:06.193Z,5668.00
2018-07-27T09:56:06.361Z,5660.00
2018-07-27T09:57:06.521Z,5736.00
2018-07-27T09:58:06.685Z,4908.00
2018-07-27T09:59:06.852Z,5644.00
2018-07-27T10:00:07.018Z,5840.00
2018-07-27T10:01:07.188Z,5868.00
2018-07-27T10:02:07.348Z,5808.00
2018-07-27T10:03:07.511Z,5788.00
2018-07-27T10:04:07.675Z,5812.00
2018-07-27T10:05:07.840Z,5836.00
2018-07-27T10:06:08.008Z,5896.00
2018-07-27T10:07:08.167Z,5908.00
2018-07-27T10:08:08.331Z,5464.00
2018-07-27T10:09:08.497Z,4052.00
2018-07-27T10:10:08.662Z,4008.00
2018-07-27T10:11:08.825Z,5872.00
2018-07-27T10:12:08.988Z,4076.00
2018-07-27T10:13:09.151Z,5892.00
2018-07-27T10:14:09.316Z,3980.00
2018-07-27T10:15:09.477Z,3828.00
2018-07-27T10:16:09.642Z,3764.00
2018-07-27T10:17:09.806Z,3800.00
2018-07-27T10:18:09.970Z,5188.00
2018-07-27T10:19:10.133Z,5744.00
2018-07-27T10:20:10.298Z,5760.00
2018-07-27T10:21:10.460Z,5796.00
2018-07-27T10:22:10.626Z,5680.00
2018-07-27T10:23:10.791Z,5684.00
2018-07-27T10:24:11.012Z,5696.00
2018-07-27T10:25:11.121Z,5700.00
2018-07-27T10:26:11.285Z,4076.00
2018-07-27T10:27:11.450Z,5740.00
2018-07-27T10:28:11.610Z,6044.00
2018-07-27T10:29:11.785Z,6128.00
2018-07-27T10:30:11.946Z,6168.00
2018-07-27T10:31:12.130Z,6156.00
2018-07-27T10:32:12.278Z,5980.00
2018-07-27T10:33:12.440Z,5720.00
2018-07-27T10:34:12.601Z,5700.00
2018-07-27T10:35:12.768Z,5756.00
2018-07-27T10:36:12.932Z,5840.00
2018-07-27T10:37:13.098Z,5828.00
2018-07-27T10:38:13.258Z,5804.00
2018-07-27T10:39:13.459Z,4692.00
2018-07-27T10:40:13.591Z,5660.00
2018-07-27T10:41:13.758Z,5796.00
2018-07-27T10:42:13.920Z,5944.00
2018-07-27T10:43:14.089Z,6004.00
2018-07-27T10:44:14.260Z,6012.00
2018-07-27T10:45:14.434Z,5936.00
2018-07-27T10:46:14.599Z,5260.00
2018-07-27T10:47:14.763Z,5904.00
2018-07-27T10:48:14.929Z,5864.00
2018-07-27T10:49:15.092Z,5828.00
2018-07-27T10:50:15.286Z,5840.00
2018-07-27T10:51:15.421Z,5756.00
2018-07-27T10:52:15.587Z,5808.00
2018-07-27T10:53:15.759Z,5844.00
2018-07-27T10:54:15.918Z,5848.00
2018-07-27T10:55:16.081Z,5840.00
2018-07-27T10:56:16.246Z,5812.00
2018-07-27T10:57:16.412Z,5876.00
2018-07-27T10:58:16.576Z,3860.00
2018-07-27T10:59:16.740Z,3716.00
2018-07-27T11:00:16.905Z,3660.00
2018-07-27T11:01:17.069Z,5688.00
2018-07-27T11:02:17.250Z,5720.00
2018-07-27T11:03:17.402Z,5744.00
2018-07-27T11:04:17.567Z,5720.00
2018-07-27T11:05:17.732Z,5708.00
2018-07-27T11:06:17.896Z,5700.00
2018-07-27T11:07:18.063Z,3792.00
2018-07-27T11:08:18.225Z,3784.00
2018-07-27T11:09:18.391Z,5728.00
2018-07-27T11:10:18.557Z,5868.00
2018-07-27T11:11:18.719Z,5896.00
2018-07-27T11:12:18.886Z,5912.00
2018-07-27T11:13:19.050Z,5924.00
2018-07-27T11:14:19.212Z,5936.00
2018-07-27T11:15:19.401Z,5716.00
2018-07-27T11:16:19.551Z,5976.00
2018-07-27T11:17:19.748Z,6044.00
2018-07-27T11:18:19.877Z,4164.00
2018-07-27T11:19:20.043Z,4096.00
2018-07-27T11:20:20.203Z,5840.00
2018-07-27T11:21:20.368Z,4720.00
2018-07-27T11:22:20.534Z,5816.00
2018-07-27T11:23:20.699Z,5760.00
2018-07-27T11:24:20.865Z,5808.00
2018-07-27T11:25:21.027Z,5904.00
2018-07-27T11:26:21.191Z,5964.00
2018-07-27T11:27:21.355Z,6056.00
2018-07-27T11:28:21.520Z,6204.00
2018-07-27T11:29:21.683Z,6340.00
2018-07-27T11:30:21.849Z,6352.00
2018-07-27T11:31:22.011Z,6368.00
2018-07-27T11:32:22.182Z,6404.00
2018-07-27T11:33:22.344Z,6568.00
2018-07-27T11:34:22.508Z,6616.00
2018-07-27T11:35:22.675Z,6572.00
2018-07-27T11:36:22.840Z,6456.00
2018-07-27T11:37:23.050Z,6308.00
2018-07-27T11:38:23.169Z,4544.00
2018-07-27T11:39:23.338Z,5252.00
2018-07-27T11:40:23.500Z,5724.00
2018-07-27T11:41:23.665Z,6144.00
2018-07-27T11:42:23.877Z,5732.00
2018-07-27T11:43:23.996Z,6184.00
2018-07-27T11:44:24.162Z,6288.00
2018-07-27T11:45:24.325Z,6532.00
2018-07-27T11:46:24.489Z,6692.00
2018-07-27T11:47:24.654Z,6804.00
2018-07-27T11:48:24.815Z,6872.00
2018-07-27T11:49:25.025Z,6944.00
2018-07-27T11:50:25.151Z,7012.00
2018-07-27T11:51:25.312Z,7072.00
2018-07-27T11:52:25.485Z,7136.00
2018-07-27T11:53:25.649Z,6528.00
2018-07-27T11:54:25.813Z,6780.00
2018-07-27T11:55:25.980Z,4864.00
2018-07-27T11:56:26.147Z,5020.00
2018-07-27T11:57:26.324Z,7044.00
2018-07-27T11:58:26.475Z,7392.00
2018-07-27T11:59:26.644Z,7596.00
2018-07-27T12:00:26.852Z,7836.00
2018-07-27T12:01:26.993Z,7944.00
2018-07-27T12:02:27.157Z,8124.00
2018-07-27T12:03:27.323Z,8240.00
2018-07-27T12:04:27.488Z,8292.00
2018-07-27T12:05:27.648Z,8312.00
2018-07-27T12:06:27.814Z,8264.00
2018-07-27T12:07:27.980Z,8072.00
2018-07-27T12:08:28.143Z,7752.00
2018-07-27T12:09:28.310Z,6396.00
2018-07-27T12:10:28.475Z,5904.00
2018-07-27T12:11:28.642Z,6016.00
2018-07-27T12:12:28.808Z,7220.00
2018-07-27T12:13:28.973Z,7252.00
2018-07-27T12:14:29.528Z,7312.00
2018-07-27T12:15:29.303Z,6564.00
2018-07-27T12:16:29.469Z,6356.00
2018-07-27T12:17:29.633Z,7096.00
2018-07-27T12:18:29.802Z,7068.00
2018-07-27T12:19:29.965Z,7112.00
2018-07-27T12:20:30.210Z,7244.00
2018-07-27T12:21:30.429Z,7416.00
2018-07-27T12:22:30.466Z,7648.00
2018-07-27T12:23:30.631Z,7848.00
2018-07-27T12:24:30.797Z,7900.00
2018-07-27T12:25:30.964Z,7920.00
2018-07-27T12:26:31.127Z,6116.00
2018-07-27T12:27:31.298Z,7504.00